NCAR-RAP Real-Time Weather Data

Output produced by METARs form (19 June 2018  07:02 UTC)
found at http://weather.rap.ucar.edu/surface/
 
Conditions at: KCGC observed 19 June 2018  06:55 UTC
Temperature: 24.0°C (75°F)
Dewpoint: 22.0°C (72°F) [RH = 89%]
Pressure (altimeter): 30.03 inches Hg (1017.0 mb)
Winds: calm
Visibility: 10 or more miles (16+ km)
Ceiling: at least 12,000 feet AGL
Clouds: sky clear below 12,000 feet AGL
Present Weather: automated observation with no human augmentation;
there may or may not be significant weather present at this time
KCGC 190655Z AUTO 00000KT 10SM CLR 24/22 A3003 RMK AO2

Conditions at: KCGC observed 19 June 2018  06:35 UTC
Temperature: 24.0°C (75°F)
Dewpoint: 22.0°C (72°F) [RH = 89%]
Pressure (altimeter): 30.04 inches Hg (1017.4 mb)
Winds: calm
Visibility: 10 or more miles (16+ km)
Ceiling: at least 12,000 feet AGL
Clouds: sky clear below 12,000 feet AGL
Present Weather: automated observation with no human augmentation;
there may or may not be significant weather present at this time
KCGC 190635Z AUTO 00000KT 10SM CLR 24/22 A3004 RMK AO2

Conditions at: KCGC observed 19 June 2018  06:15 UTC
Temperature: 24.0°C (75°F)
Dewpoint: 22.0°C (72°F) [RH = 89%]
Pressure (altimeter): 30.04 inches Hg (1017.4 mb)
Winds: calm
Visibility: 10 or more miles (16+ km)
Ceiling: at least 12,000 feet AGL
Clouds: sky clear below 12,000 feet AGL
Present Weather: automated observation with no human augmentation;
there may or may not be significant weather present at this time
KCGC 190615Z AUTO 00000KT 10SM CLR 24/22 A3004 RMK AO2

Conditions at: KCGC observed 19 June 2018  05:55 UTC
Temperature: 23.0°C (73°F)
Dewpoint: 22.0°C (72°F) [RH = 94%]
Pressure (altimeter): 30.05 inches Hg (1017.7 mb)
Winds: calm
Visibility: 10 or more miles (16+ km)
Ceiling: at least 12,000 feet AGL
Clouds: sky clear below 12,000 feet AGL
Present Weather: automated observation with no human augmentation;
there may or may not be significant weather present at this time
KCGC 190555Z AUTO 00000KT 10SM CLR 23/22 A3005 RMK AO2

Conditions at: KCGC observed 19 June 2018  05:35 UTC
Temperature: 23.0°C (73°F)
Dewpoint: 22.0°C (72°F) [RH = 94%]
Pressure (altimeter): 30.06 inches Hg (1018.0 mb)
Winds: calm
Visibility: 10 or more miles (16+ km)
Ceiling: at least 12,000 feet AGL
Clouds: sky clear below 12,000 feet AGL
Present Weather: automated observation with no human augmentation;
there may or may not be significant weather present at this time
KCGC 190535Z AUTO 00000KT 10SM CLR 23/22 A3006 RMK AO2 LTG DSNT SW

Conditions at: KCGC observed 19 June 2018  05:15 UTC
Temperature: 23.0°C (73°F)
Dewpoint: 23.0°C (73°F) [RH = 100%]
Pressure (altimeter): 30.06 inches Hg (1018.0 mb)
Winds: calm
Visibility: 10 or more miles (16+ km)
Ceiling: at least 12,000 feet AGL
Clouds: sky clear below 12,000 feet AGL
Present Weather: automated observation with no human augmentation;
there may or may not be significant weather present at this time
KCGC 190515Z AUTO 00000KT 10SM CLR 23/23 A3006 RMK AO2

Conditions at: KCGC observed 19 June 2018  04:55 UTC
Temperature: 23.0°C (73°F)
Dewpoint: 22.0°C (72°F) [RH = 94%]
Pressure (altimeter): 30.06 inches Hg (1018.0 mb)
Winds: calm
Visibility: 10 or more miles (16+ km)
Ceiling: at least 12,000 feet AGL
Clouds: sky clear below 12,000 feet AGL
Present Weather: automated observation with no human augmentation;
there may or may not be significant weather present at this time
KCGC 190455Z AUTO 00000KT 10SM CLR 23/22 A3006 RMK AO2

Conditions at: KCGC observed 19 June 2018  04:35 UTC
Temperature: 24.0°C (75°F)
Dewpoint: 22.0°C (72°F) [RH = 89%]
Pressure (altimeter): 30.07 inches Hg (1018.4 mb)
Winds: calm
Visibility: 10 or more miles (16+ km)
Ceiling: at least 12,000 feet AGL
Clouds: sky clear below 12,000 feet AGL
Present Weather: automated observation with no human augmentation;
there may or may not be significant weather present at this time
KCGC 190435Z AUTO 00000KT 10SM CLR 24/22 A3007 RMK AO2

Conditions at: KCGC observed 19 June 2018  04:15 UTC
Temperature: 24.0°C (75°F)
Dewpoint: 22.0°C (72°F) [RH = 89%]
Pressure (altimeter): 30.07 inches Hg (1018.4 mb)
Winds: calm
Visibility: 10 or more miles (16+ km)
Ceiling: at least 12,000 feet AGL
Clouds: scattered clouds at 4400 feet AGL
scattered clouds at 11000 feet AGL
Present Weather: automated observation with no human augmentation;
there may or may not be significant weather present at this time
KCGC 190415Z AUTO 00000KT 10SM SCT044 SCT110 24/22 A3007 RMK AO2

Conditions at: KCGC observed 19 June 2018  03:55 UTC
Temperature: 25.0°C (77°F)
Dewpoint: 22.0°C (72°F) [RH = 83%]
Pressure (altimeter): 30.08 inches Hg (1018.7 mb)
Winds: calm
Visibility: 10 or more miles (16+ km)
Ceiling: 4200 feet AGL
Clouds: broken clouds at 4200 feet AGL
broken clouds at 10000 feet AGL
Present Weather: automated observation with no human augmentation;
there may or may not be significant weather present at this time
KCGC 190355Z AUTO 00000KT 10SM BKN042 BKN100 25/22 A3008 RMK AO2 LTG DSNT S

Conditions at: KCGC observed 19 June 2018  03:35 UTC
Temperature: 24.0°C (75°F)
Dewpoint: 22.0°C (72°F) [RH = 89%]
Pressure (altimeter): 30.08 inches Hg (1018.7 mb)
Winds: calm
Visibility: 10 or more miles (16+ km)
Ceiling: at least 12,000 feet AGL
Clouds: scattered clouds at 4000 feet AGL
scattered clouds at 4600 feet AGL
scattered clouds at 11000 feet AGL
Present Weather: automated observation with no human augmentation;
there may or may not be significant weather present at this time
KCGC 190335Z AUTO 00000KT 10SM SCT040 SCT046 SCT110 24/22 A3008 RMK AO2

Conditions at: KCGC observed 19 June 2018  03:15 UTC
Temperature: 25.0°C (77°F)
Dewpoint: 22.0°C (72°F) [RH = 83%]
Pressure (altimeter): 30.08 inches Hg (1018.7 mb)
Winds: calm
Visibility: 10 or more miles (16+ km)
Ceiling: at least 12,000 feet AGL
Clouds: scattered clouds at 9000 feet AGL
Present Weather: automated observation with no human augmentation;
there may or may not be significant weather present at this time
KCGC 190315Z AUTO 00000KT 10SM SCT090 25/22 A3008 RMK AO2

Conditions at: KCGC observed 19 June 2018  02:55 UTC
Temperature: 25.0°C (77°F)
Dewpoint: 22.0°C (72°F) [RH = 83%]
Pressure (altimeter): 30.08 inches Hg (1018.7 mb)
Winds: calm
Visibility: 10 or more miles (16+ km)
Ceiling: 9000 feet AGL
Clouds: scattered clouds at 7000 feet AGL
broken clouds at 9000 feet AGL
Present Weather: automated observation with no human augmentation;
there may or may not be significant weather present at this time
KCGC 190255Z AUTO 00000KT 10SM SCT070 BKN090 25/22 A3008 RMK AO2

Conditions at: KCGC observed 19 June 2018  02:35 UTC
Temperature: 24.0°C (75°F)
Dewpoint: 22.0°C (72°F) [RH = 89%]
Pressure (altimeter): 30.08 inches Hg (1018.7 mb)
Winds: from the ENE (70 degrees) at 5 MPH (4 knots; 2.1 m/s)
Visibility: 10 or more miles (16+ km)
Ceiling: 8000 feet AGL
Clouds: scattered clouds at 4900 feet AGL
scattered clouds at 5500 feet AGL
overcast cloud deck at 8000 feet AGL
Present Weather: automated observation with no human augmentation;
there may or may not be significant weather present at this time
KCGC 190235Z AUTO 07004KT 10SM SCT049 SCT055 OVC080 24/22 A3008 RMK AO2

Conditions at: KCGC observed 19 June 2018  02:15 UTC
Temperature: 25.0°C (77°F)
Dewpoint: 22.0°C (72°F) [RH = 83%]
Pressure (altimeter): 30.07 inches Hg (1018.4 mb)
Winds: calm
Visibility: 10 or more miles (16+ km)
Ceiling: 6500 feet AGL
Clouds: broken clouds at 6500 feet AGL
Present Weather: automated observation with no human augmentation;
there may or may not be significant weather present at this time
KCGC 190215Z AUTO 00000KT 10SM BKN065 25/22 A3007 RMK AO2

Conditions at: KCGC observed 19 June 2018  01:55 UTC
Temperature: 25.0°C (77°F)
Dewpoint: 22.0°C (72°F) [RH = 83%]
Pressure (altimeter): 30.06 inches Hg (1018.0 mb)
Winds: calm
Visibility: 10 or more miles (16+ km)
Ceiling: at least 12,000 feet AGL
Clouds: sky clear below 12,000 feet AGL
Present Weather: automated observation with no human augmentation;
there may or may not be significant weather present at this time
KCGC 190155Z AUTO 00000KT 10SM CLR 25/22 A3006 RMK AO2 LTG DSNT S

Conditions at: KCGC observed 19 June 2018  01:35 UTC
Temperature: 24.0°C (75°F)
Dewpoint: 22.0°C (72°F) [RH = 89%]
Pressure (altimeter): 30.06 inches Hg (1018.0 mb)
Winds: calm
Visibility: 10 or more miles (16+ km)
Ceiling: at least 12,000 feet AGL
Clouds: sky clear below 12,000 feet AGL
Present Weather: automated observation with no human augmentation;
there may or may not be significant weather present at this time
KCGC 190135Z AUTO 00000KT 10SM CLR 24/22 A3006 RMK AO2 LTG DSNT S

Conditions at: KCGC observed 19 June 2018  01:15 UTC
Temperature: 24.0°C (75°F)
Dewpoint: 22.0°C (72°F) [RH = 89%]
Pressure (altimeter): 30.06 inches Hg (1018.0 mb)
Winds: calm
Visibility: 10 or more miles (16+ km)
Ceiling: at least 12,000 feet AGL
Clouds: sky clear below 12,000 feet AGL
Present Weather: automated observation with no human augmentation;
there may or may not be significant weather present at this time
KCGC 190115Z AUTO 00000KT 10SM CLR 24/22 A3006 RMK AO2 LTG DSNT W

Conditions at: KCGC observed 19 June 2018  00:55 UTC
Temperature: 24.0°C (75°F)
Dewpoint: 22.0°C (72°F) [RH = 89%]
Pressure (altimeter): 30.06 inches Hg (1018.0 mb)
Winds: calm
Visibility: 10 or more miles (16+ km)
Ceiling: at least 12,000 feet AGL
Clouds: scattered clouds at 5000 feet AGL
scattered clouds at 12000 feet AGL
Present Weather: VCTS RA  (thunderstorm in vicinity, rain)
KCGC 190055Z AUTO 00000KT 10SM VCTSRA SCT050 SCT120 24/22 A3006 RMK AO2 LTG DSNT SW

Conditions at: KCGC observed 19 June 2018  00:35 UTC
Temperature: 25.0°C (77°F)
Dewpoint: 21.0°C (70°F) [RH = 79%]
Pressure (altimeter): 30.06 inches Hg (1018.0 mb)
Winds: calm
Visibility: 10 or more miles (16+ km)
Ceiling: 6000 feet AGL
Clouds: scattered clouds at 2900 feet AGL
broken clouds at 6000 feet AGL
overcast cloud deck at 12000 feet AGL
Present Weather: -TSRA  (light rain associated with thunderstorm(s))
KCGC 190035Z AUTO 00000KT 10SM -TSRA SCT029 BKN060 OVC120 25/21 A3006 RMK AO2 LTG DSNT N S AND SW

Conditions at: KCGC observed 19 June 2018  00:15 UTC
Temperature: 27.0°C (81°F)
Dewpoint: 23.0°C (73°F) [RH = 79%]
Pressure (altimeter): 30.08 inches Hg (1018.7 mb)
Winds: from the N (360 degrees) at 3 MPH (3 knots; 1.6 m/s)
Visibility: 10 or more miles (16+ km)
Ceiling: 5000 feet AGL
Clouds: scattered clouds at 2900 feet AGL
broken clouds at 5000 feet AGL
overcast cloud deck at 7000 feet AGL
Present Weather: -TSRA  (light rain associated with thunderstorm(s))
KCGC 190015Z AUTO 36003KT 10SM -TSRA SCT029 BKN050 OVC070 27/23 A3008 RMK AO2 LTG DSNT ALQS

Conditions at: KCGC observed 18 June 2018  23:55 UTC
Temperature: 28.0°C (82°F)
Dewpoint: 24.0°C (75°F) [RH = 79%]
Pressure (altimeter): 30.06 inches Hg (1018.0 mb)
Winds: calm
Visibility: 10 or more miles (16+ km)
Ceiling: 6000 feet AGL
Clouds: scattered clouds at 2600 feet AGL
scattered clouds at 3900 feet AGL
broken clouds at 6000 feet AGL
Present Weather: -TSRA  (light rain associated with thunderstorm(s))
KCGC 182355Z AUTO 00000KT 10SM -TSRA SCT026 SCT039 BKN060 28/24 A3006 RMK AO2 LTG DSNT ALQS

Conditions at: KCGC observed 18 June 2018  23:35 UTC
Temperature: 30.0°C (86°F)
Dewpoint: 24.0°C (75°F) [RH = 70%]
Pressure (altimeter): 30.05 inches Hg (1017.7 mb)
Winds: from the ENE (70 degrees) at 5 MPH (4 knots; 2.1 m/s)
Visibility: 10 or more miles (16+ km)
Ceiling: 10000 feet AGL
Clouds: scattered clouds at 4300 feet AGL
scattered clouds at 6000 feet AGL
broken clouds at 10000 feet AGL
Present Weather: -TSRA  (light rain associated with thunderstorm(s))
KCGC 182335Z AUTO 07004KT 10SM -TSRA SCT043 SCT060 BKN100 30/24 A3005 RMK AO2 LTG DSNT ALQS

Conditions at: KCGC observed 18 June 2018  23:15 UTC
Temperature: 31.0°C (88°F)
Dewpoint: 24.0°C (75°F) [RH = 66%]
Pressure (altimeter): 30.05 inches Hg (1017.7 mb)
Winds: from the WNW (290 degrees) at 7 MPH (6 knots; 3.1 m/s)
Visibility: 10 or more miles (16+ km)
Ceiling: at least 12,000 feet AGL
Clouds: sky clear below 12,000 feet AGL
Present Weather: TS  (thunderstorm)
KCGC 182315Z AUTO 29006KT 10SM TS CLR 31/24 A3005 RMK AO2 LTG DSNT ALQS

Conditions at: KCGC observed 18 June 2018  22:55 UTC
Temperature: 31.0°C (88°F)
Dewpoint: 23.0°C (73°F) [RH = 63%]
Pressure (altimeter): 30.04 inches Hg (1017.4 mb)
Winds: from the WNW (300 degrees) at 6 MPH (5 knots; 2.6 m/s)
Visibility: 10 or more miles (16+ km)
Ceiling: at least 12,000 feet AGL
Clouds: sky clear below 12,000 feet AGL
Present Weather: VCTS  (thunderstorm in vicinity)
KCGC 182255Z AUTO 30005KT 10SM VCTS CLR 31/23 A3004 RMK AO2 LTG DSNT NW THRU NE

Conditions at: KCGC observed 18 June 2018  22:35 UTC
Temperature: 31.0°C (88°F)
Dewpoint: 23.0°C (73°F) [RH = 63%]
Pressure (altimeter): 30.04 inches Hg (1017.4 mb)
Winds: from the NW (310 degrees) at 7 MPH (6 knots; 3.1 m/s)
Visibility: 10 or more miles (16+ km)
Ceiling: at least 12,000 feet AGL
Clouds: sky clear below 12,000 feet AGL
Present Weather: automated observation with no human augmentation;
there may or may not be significant weather present at this time
KCGC 182235Z AUTO 31006KT 10SM CLR 31/23 A3004 RMK AO2 LTG DSNT N

Conditions at: KCGC observed 18 June 2018  22:15 UTC
Temperature: 32.0°C (90°F)
Dewpoint: 23.0°C (73°F) [RH = 59%]
Pressure (altimeter): 30.03 inches Hg (1017.0 mb)
Winds: from the WNW (300 degrees) at 6 MPH (5 knots; 2.6 m/s)
Visibility: 10 or more miles (16+ km)
Ceiling: at least 12,000 feet AGL
Clouds: scattered clouds at 8000 feet AGL
scattered clouds at 9000 feet AGL
Present Weather: automated observation with no human augmentation;
there may or may not be significant weather present at this time
KCGC 182215Z AUTO 30005KT 10SM SCT080 SCT090 32/23 A3003 RMK AO2 LTG DSNT N

Conditions at: KCGC observed 18 June 2018  21:55 UTC
Temperature: 32.0°C (90°F)
Dewpoint: 24.0°C (75°F) [RH = 63%]
Pressure (altimeter): 30.04 inches Hg (1017.4 mb)
Winds: from the WNW (300 degrees) at 6 MPH (5 knots; 2.6 m/s)
Visibility: 10 or more miles (16+ km)
Ceiling: at least 12,000 feet AGL
Clouds: scattered clouds at 8000 feet AGL
scattered clouds at 9000 feet AGL
Present Weather: VCTS  (thunderstorm in vicinity)
KCGC 182155Z AUTO 30005KT 10SM VCTS SCT080 SCT090 32/24 A3004 RMK AO2 LTG DSNT N AND NE

Conditions at: KCGC observed 18 June 2018  21:35 UTC
Temperature: 32.0°C (90°F)
Dewpoint: 24.0°C (75°F) [RH = 63%]
Pressure (altimeter): 30.05 inches Hg (1017.7 mb)
Winds: from the W (280 degrees) at 7 MPH (6 knots; 3.1 m/s)
Visibility: 10 or more miles (16+ km)
Ceiling: at least 12,000 feet AGL
Clouds: scattered clouds at 5000 feet AGL
scattered clouds at 6000 feet AGL
scattered clouds at 8000 feet AGL
Present Weather: automated observation with no human augmentation;
there may or may not be significant weather present at this time
KCGC 182135Z AUTO 28006KT 10SM SCT050 SCT060 SCT080 32/24 A3005 RMK AO2 LTG DSNT N

Conditions at: KCGC observed 18 June 2018  21:15 UTC
Temperature: 32.0°C (90°F)
Dewpoint: 24.0°C (75°F) [RH = 63%]
Pressure (altimeter): 30.04 inches Hg (1017.4 mb)
Winds: from the WNW (300 degrees) at 6 MPH (5 knots; 2.6 m/s)
Visibility: 10 or more miles (16+ km)
Ceiling: at least 12,000 feet AGL
Clouds: scattered clouds at 8000 feet AGL
Present Weather: automated observation with no human augmentation;
there may or may not be significant weather present at this time
KCGC 182115Z AUTO 30005KT 10SM SCT080 32/24 A3004 RMK AO2 LTG DSNT N

Conditions at: KCGC observed 18 June 2018  20:55 UTC
Temperature: 32.0°C (90°F)
Dewpoint: 24.0°C (75°F) [RH = 63%]
Pressure (altimeter): 30.04 inches Hg (1017.4 mb)
Winds: from the WNW (290 degrees) at 7 MPH (6 knots; 3.1 m/s)
Visibility: 10 or more miles (16+ km)
Ceiling: at least 12,000 feet AGL
Clouds: sky clear below 12,000 feet AGL
Present Weather: automated observation with no human augmentation;
there may or may not be significant weather present at this time
KCGC 182055Z AUTO 29006KT 10SM CLR 32/24 A3004 RMK AO2 LTG DSNT N

Conditions at: KCGC observed 18 June 2018  20:35 UTC
Temperature: 32.0°C (90°F)
Dewpoint: 24.0°C (75°F) [RH = 63%]
Pressure (altimeter): 30.05 inches Hg (1017.7 mb)
Winds: from the W (260 degrees) at 6 MPH (5 knots; 2.6 m/s)
Visibility: 10 or more miles (16+ km)
Ceiling: at least 12,000 feet AGL
Clouds: scattered clouds at 4600 feet AGL
scattered clouds at 6500 feet AGL
scattered clouds at 7000 feet AGL
Present Weather: automated observation with no human augmentation;
there may or may not be significant weather present at this time
KCGC 182035Z AUTO 26005KT 10SM SCT046 SCT065 SCT070 32/24 A3005 RMK AO2 LTG DSNT N

Conditions at: KCGC observed 18 June 2018  20:15 UTC
Temperature: 33.0°C (91°F)
Dewpoint: 24.0°C (75°F) [RH = 59%]
Pressure (altimeter): 30.06 inches Hg (1018.0 mb)
Winds: from the NW (320 degrees) at 6 MPH (5 knots; 2.6 m/s)
Visibility: 10 or more miles (16+ km)
Ceiling: 8500 feet AGL
Clouds: scattered clouds at 4900 feet AGL
scattered clouds at 7000 feet AGL
broken clouds at 8500 feet AGL
Present Weather: automated observation with no human augmentation;
there may or may not be significant weather present at this time
KCGC 182015Z AUTO 32005KT 10SM SCT049 SCT070 BKN085 33/24 A3006 RMK AO2 LTG DSNT N

Conditions at: KCGC observed 18 June 2018  19:55 UTC
Temperature: 33.0°C (91°F)
Dewpoint: 24.0°C (75°F) [RH = 59%]
Pressure (altimeter): 30.06 inches Hg (1018.0 mb)
Winds: from the W (260 degrees) at 7 MPH (6 knots; 3.1 m/s)
Visibility: 10 or more miles (16+ km)
Ceiling: 7500 feet AGL
Clouds: scattered clouds at 4700 feet AGL
scattered clouds at 5500 feet AGL
broken clouds at 7500 feet AGL
Present Weather: automated observation with no human augmentation;
there may or may not be significant weather present at this time
KCGC 181955Z AUTO 26006KT 10SM SCT047 SCT055 BKN075 33/24 A3006 RMK AO2 LTG DSNT N

Conditions at: KCGC observed 18 June 2018  19:35 UTC
Temperature: 32.0°C (90°F)
Dewpoint: 24.0°C (75°F) [RH = 63%]
Pressure (altimeter): 30.07 inches Hg (1018.4 mb)
Winds: from the NW (310 degrees) at 6 MPH (5 knots; 2.6 m/s)
Visibility: 10 or more miles (16+ km)
Ceiling: at least 12,000 feet AGL
Clouds: scattered clouds at 7500 feet AGL
scattered clouds at 9000 feet AGL
Present Weather: automated observation with no human augmentation;
there may or may not be significant weather present at this time
KCGC 181935Z AUTO 31005KT 10SM SCT075 SCT090 32/24 A3007 RMK AO2 LTG DSNT S

Conditions at: KCGC observed 18 June 2018  19:15 UTC
Temperature: 32.0°C (90°F)
Dewpoint: 24.0°C (75°F) [RH = 63%]
Pressure (altimeter): 30.08 inches Hg (1018.7 mb)
Winds: from the WNW (290 degrees) at 6 MPH (5 knots; 2.6 m/s)
Visibility: 10 or more miles (16+ km)
Ceiling: 8500 feet AGL
Clouds: scattered clouds at 4500 feet AGL
scattered clouds at 5000 feet AGL
broken clouds at 8500 feet AGL
Present Weather: automated observation with no human augmentation;
there may or may not be significant weather present at this time
KCGC 181915Z AUTO 29005KT 10SM SCT045 SCT050 BKN085 32/24 A3008 RMK AO2

Conditions at: KCGC observed 18 June 2018  18:55 UTC
Temperature: 32.0°C (90°F)
Dewpoint: 23.0°C (73°F) [RH = 59%]
Pressure (altimeter): 30.09 inches Hg (1019.0 mb)
Winds: from the W (280 degrees) at 8 MPH (7 knots; 3.6 m/s)
Visibility: 10 or more miles (16+ km)
Ceiling: 6500 feet AGL
Clouds: scattered clouds at 4400 feet AGL
scattered clouds at 5000 feet AGL
broken clouds at 6500 feet AGL
Present Weather: automated observation with no human augmentation;
there may or may not be significant weather present at this time
KCGC 181855Z AUTO 28007KT 10SM SCT044 SCT050 BKN065 32/23 A3009 RMK AO2

Conditions at: KCGC observed 18 June 2018  18:35 UTC
Temperature: 32.0°C (90°F)
Dewpoint: 24.0°C (75°F) [RH = 63%]
Pressure (altimeter): 30.09 inches Hg (1019.0 mb)
Winds: from the W (270 degrees) at 9 MPH (8 knots; 4.2 m/s)
Visibility: 10 or more miles (16+ km)
Ceiling: at least 12,000 feet AGL
Clouds: scattered clouds at 4800 feet AGL
scattered clouds at 6500 feet AGL
scattered clouds at 7500 feet AGL
Present Weather: automated observation with no human augmentation;
there may or may not be significant weather present at this time
KCGC 181835Z AUTO 27008KT 10SM SCT048 SCT065 SCT075 32/24 A3009 RMK AO2

Conditions at: KCGC observed 18 June 2018  18:15 UTC
Temperature: 31.0°C (88°F)
Dewpoint: 23.0°C (73°F) [RH = 63%]
Pressure (altimeter): 30.10 inches Hg (1019.4 mb)
Winds: from the WNW (290 degrees) at 5 MPH (4 knots; 2.1 m/s)
Visibility: 10 or more miles (16+ km)
Ceiling: 4800 feet AGL
Clouds: broken clouds at 4800 feet AGL
broken clouds at 5500 feet AGL
overcast cloud deck at 7500 feet AGL
Present Weather: automated observation with no human augmentation;
there may or may not be significant weather present at this time
KCGC 181815Z AUTO 29004KT 10SM BKN048 BKN055 OVC075 31/23 A3010 RMK AO2

Conditions at: KCGC observed 18 June 2018  17:55 UTC
Temperature: 30.0°C (86°F)
Dewpoint: 23.0°C (73°F) [RH = 66%]
Pressure (altimeter): 30.11 inches Hg (1019.7 mb)
Winds: from the WNW (290 degrees) at 5 MPH (4 knots; 2.1 m/s)
Visibility: 10 or more miles (16+ km)
Ceiling: 4800 feet AGL
Clouds: broken clouds at 4800 feet AGL
overcast cloud deck at 5500 feet AGL
Present Weather: automated observation with no human augmentation;
there may or may not be significant weather present at this time
KCGC 181755Z AUTO 29004KT 10SM BKN048 OVC055 30/23 A3011 RMK AO2

Conditions at: KCGC observed 18 June 2018  17:35 UTC
Temperature: 31.0°C (88°F)
Dewpoint: 22.0°C (72°F) [RH = 59%]
Pressure (altimeter): 30.11 inches Hg (1019.7 mb)
Winds: from the WNW (290 degrees) at 3 MPH (3 knots; 1.6 m/s)
Visibility: 10 or more miles (16+ km)
Ceiling: 6500 feet AGL
Clouds: scattered clouds at 4800 feet AGL
broken clouds at 6500 feet AGL
broken clouds at 8000 feet AGL
Present Weather: automated observation with no human augmentation;
there may or may not be significant weather present at this time
KCGC 181735Z AUTO 29003KT 10SM SCT048 BKN065 BKN080 31/22 A3011 RMK AO2

Conditions at: KCGC observed 18 June 2018  17:15 UTC
Temperature: 33.0°C (91°F)
Dewpoint: 21.0°C (70°F) [RH = 49%]
Pressure (altimeter): 30.11 inches Hg (1019.7 mb)
Winds: from the E (100 degrees) at 5 MPH (4 knots; 2.1 m/s)
Visibility: 10 or more miles (16+ km)
Ceiling: 4800 feet AGL
Clouds: broken clouds at 4800 feet AGL
Present Weather: automated observation with no human augmentation;
there may or may not be significant weather present at this time
KCGC 181715Z AUTO 10004KT 10SM BKN048 33/21 A3011 RMK AO2

Conditions at: KCGC observed 18 June 2018  16:55 UTC
Temperature: 32.0°C (90°F)
Dewpoint: 21.0°C (70°F) [RH = 52%]
Pressure (altimeter): 30.12 inches Hg (1020.1 mb)
Winds: calm
Visibility: 10 or more miles (16+ km)
Ceiling: at least 12,000 feet AGL
Clouds: scattered clouds at 4800 feet AGL
Present Weather: automated observation with no human augmentation;
there may or may not be significant weather present at this time
KCGC 181655Z AUTO 00000KT 10SM SCT048 32/21 A3012 RMK AO2

Conditions at: KCGC observed 18 June 2018  16:35 UTC
Temperature: 32.0°C (90°F)
Dewpoint: 21.0°C (70°F) [RH = 52%]
Pressure (altimeter): 30.13 inches Hg (1020.4 mb)
Winds: calm
Visibility: 10 or more miles (16+ km)
Ceiling: 4500 feet AGL
Clouds: broken clouds at 4500 feet AGL
Present Weather: automated observation with no human augmentation;
there may or may not be significant weather present at this time
KCGC 181635Z AUTO 00000KT 10SM BKN045 32/21 A3013 RMK AO2

Conditions at: KCGC observed 18 June 2018  16:15 UTC
Temperature: 32.0°C (90°F)
Dewpoint: 21.0°C (70°F) [RH = 52%]
Pressure (altimeter): 30.13 inches Hg (1020.4 mb)
Winds: from the E (90 degrees) at 7 MPH (6 knots; 3.1 m/s)
Visibility: 10 or more miles (16+ km)
Ceiling: at least 12,000 feet AGL
Clouds: scattered clouds at 3800 feet AGL
Present Weather: automated observation with no human augmentation;
there may or may not be significant weather present at this time
KCGC 181615Z AUTO 09006KT 10SM SCT038 32/21 A3013 RMK AO2

Conditions at: KCGC observed 18 June 2018  15:55 UTC
Temperature: 31.0°C (88°F)
Dewpoint: 22.0°C (72°F) [RH = 59%]
Pressure (altimeter): 30.14 inches Hg (1020.7 mb)
Winds: from the WNW (300 degrees) at 3 MPH (3 knots; 1.6 m/s)
Visibility: 10 or more miles (16+ km)
Ceiling: 3800 feet AGL
Clouds: broken clouds at 3800 feet AGL
Present Weather: automated observation with no human augmentation;
there may or may not be significant weather present at this time
KCGC 181555Z AUTO 30003KT 10SM BKN038 31/22 A3014 RMK AO2

Conditions at: KCGC observed 18 June 2018  15:35 UTC
Temperature: 31.0°C (88°F)
Dewpoint: 22.0°C (72°F) [RH = 59%]
Pressure (altimeter): 30.14 inches Hg (1020.7 mb)
Winds: calm
Visibility: 10 or more miles (16+ km)
Ceiling: at least 12,000 feet AGL
Clouds: sky clear below 12,000 feet AGL
Present Weather: automated observation with no human augmentation;
there may or may not be significant weather present at this time
KCGC 181535Z AUTO 00000KT 10SM CLR 31/22 A3014 RMK AO2

Conditions at: KCGC observed 18 June 2018  15:15 UTC
Temperature: 30.0°C (86°F)
Dewpoint: 22.0°C (72°F) [RH = 62%]
Pressure (altimeter): 30.14 inches Hg (1020.7 mb)
Winds: calm
Visibility: 10 or more miles (16+ km)
Ceiling: at least 12,000 feet AGL
Clouds: sky clear below 12,000 feet AGL
Present Weather: automated observation with no human augmentation;
there may or may not be significant weather present at this time
KCGC 181515Z AUTO 00000KT 10SM CLR 30/22 A3014 RMK AO2

Conditions at: KCGC observed 18 June 2018  14:55 UTC
Temperature: 31.0°C (88°F)
Dewpoint: 22.0°C (72°F) [RH = 59%]
Pressure (altimeter): 30.14 inches Hg (1020.7 mb)
Winds: from the E (80 degrees) at 5 MPH (4 knots; 2.1 m/s)
Visibility: 10 or more miles (16+ km)
Ceiling: at least 12,000 feet AGL
Clouds: scattered clouds at 2900 feet AGL
Present Weather: automated observation with no human augmentation;
there may or may not be significant weather present at this time
KCGC 181455Z AUTO 08004KT 10SM SCT029 31/22 A3014 RMK AO2

Conditions at: KCGC observed 18 June 2018  14:35 UTC
Temperature: 30.0°C (86°F)
Dewpoint: 22.0°C (72°F) [RH = 62%]
Pressure (altimeter): 30.15 inches Hg (1021.1 mb)
Winds: from the S (170 degrees) at 3 MPH (3 knots; 1.6 m/s)
Visibility: 10 or more miles (16+ km)
Ceiling: 3400 feet AGL
Clouds: scattered clouds at 2900 feet AGL
broken clouds at 3400 feet AGL
Present Weather: automated observation with no human augmentation;
there may or may not be significant weather present at this time
KCGC 181435Z AUTO 17003KT 10SM SCT029 BKN034 30/22 A3015 RMK AO2

Conditions at: KCGC observed 18 June 2018  14:15 UTC
Temperature: 29.0°C (84°F)
Dewpoint: 23.0°C (73°F) [RH = 70%]
Pressure (altimeter): 30.14 inches Hg (1020.7 mb)
Winds: from the ESE (120 degrees) at 5 MPH (4 knots; 2.1 m/s)
Visibility: 10 or more miles (16+ km)
Ceiling: at least 12,000 feet AGL
Clouds: scattered clouds at 2500 feet AGL
Present Weather: automated observation with no human augmentation;
there may or may not be significant weather present at this time
KCGC 181415Z AUTO 12004KT 10SM SCT025 29/23 A3014 RMK AO2

Conditions at: KCGC observed 18 June 2018  13:55 UTC
Temperature: 28.0°C (82°F)
Dewpoint: 23.0°C (73°F) [RH = 74%]
Pressure (altimeter): 30.15 inches Hg (1021.1 mb)
Winds: calm
Visibility: 10 or more miles (16+ km)
Ceiling: at least 12,000 feet AGL
Clouds: sky clear below 12,000 feet AGL
Present Weather: automated observation with no human augmentation;
there may or may not be significant weather present at this time
KCGC 181355Z AUTO 00000KT 10SM CLR 28/23 A3015 RMK AO2

Conditions at: KCGC observed 18 June 2018  13:35 UTC
Temperature: 28.0°C (82°F)
Dewpoint: 23.0°C (73°F) [RH = 74%]
Pressure (altimeter): 30.15 inches Hg (1021.1 mb)
Winds: from the ESE (120 degrees) at 3 MPH (3 knots; 1.6 m/s)
Visibility: 10 or more miles (16+ km)
Ceiling: at least 12,000 feet AGL
Clouds: sky clear below 12,000 feet AGL
Present Weather: automated observation with no human augmentation;
there may or may not be significant weather present at this time
KCGC 181335Z AUTO 12003KT 10SM CLR 28/23 A3015 RMK AO2

Conditions at: KCGC observed 18 June 2018  13:15 UTC
Temperature: 28.0°C (82°F)
Dewpoint: 24.0°C (75°F) [RH = 79%]
Pressure (altimeter): 30.14 inches Hg (1020.7 mb)
Winds: from the E (80 degrees) at 5 MPH (4 knots; 2.1 m/s)
Visibility: 10 or more miles (16+ km)
Ceiling: at least 12,000 feet AGL
Clouds: sky clear below 12,000 feet AGL
Present Weather: automated observation with no human augmentation;
there may or may not be significant weather present at this time
KCGC 181315Z AUTO 08004KT 10SM CLR 28/24 A3014 RMK AO2

Conditions at: KCGC observed 18 June 2018  12:55 UTC
Temperature: 27.0°C (81°F)
Dewpoint: 24.0°C (75°F) [RH = 84%]
Pressure (altimeter): 30.14 inches Hg (1020.7 mb)
Winds: from the E (80 degrees) at 6 MPH (5 knots; 2.6 m/s)
Visibility: 10 or more miles (16+ km)
Ceiling: at least 12,000 feet AGL
Clouds: sky clear below 12,000 feet AGL
Present Weather: automated observation with no human augmentation;
there may or may not be significant weather present at this time
KCGC 181255Z AUTO 08005KT 10SM CLR 27/24 A3014 RMK AO2

Conditions at: KCGC observed 18 June 2018  12:35 UTC
Temperature: 26.0°C (79°F)
Dewpoint: 24.0°C (75°F) [RH = 89%]
Pressure (altimeter): 30.14 inches Hg (1020.7 mb)
Winds: from the E (90 degrees) at 5 MPH (4 knots; 2.1 m/s)
Visibility: 10 or more miles (16+ km)
Ceiling: at least 12,000 feet AGL
Clouds: sky clear below 12,000 feet AGL
Present Weather: automated observation with no human augmentation;
there may or may not be significant weather present at this time
KCGC 181235Z AUTO 09004KT 10SM CLR 26/24 A3014 RMK AO2

Conditions at: KCGC observed 18 June 2018  12:15 UTC
Temperature: 25.0°C (77°F)
Dewpoint: 23.0°C (73°F) [RH = 89%]
Pressure (altimeter): 30.14 inches Hg (1020.7 mb)
Winds: from the E (80 degrees) at 5 MPH (4 knots; 2.1 m/s)
Visibility: 10 or more miles (16+ km)
Ceiling: at least 12,000 feet AGL
Clouds: sky clear below 12,000 feet AGL
Present Weather: automated observation with no human augmentation;
there may or may not be significant weather present at this time
KCGC 181215Z AUTO 08004KT 10SM CLR 25/23 A3014 RMK AO2

Conditions at: KCGC observed 18 June 2018  11:55 UTC
Temperature: 24.0°C (75°F)
Dewpoint: 23.0°C (73°F) [RH = 94%]
Pressure (altimeter): 30.14 inches Hg (1020.7 mb)
Winds: from the E (80 degrees) at 3 MPH (3 knots; 1.6 m/s)
Visibility: 10 or more miles (16+ km)
Ceiling: at least 12,000 feet AGL
Clouds: sky clear below 12,000 feet AGL
Present Weather: automated observation with no human augmentation;
there may or may not be significant weather present at this time
KCGC 181155Z AUTO 08003KT 10SM CLR 24/23 A3014 RMK AO2

Conditions at: KCGC observed 18 June 2018  11:35 UTC
Temperature: 23.0°C (73°F)
Dewpoint: 22.0°C (72°F) [RH = 94%]
Pressure (altimeter): 30.13 inches Hg (1020.4 mb)
Winds: calm
Visibility: 10 or more miles (16+ km)
Ceiling: at least 12,000 feet AGL
Clouds: sky clear below 12,000 feet AGL
Present Weather: automated observation with no human augmentation;
there may or may not be significant weather present at this time
KCGC 181135Z AUTO 00000KT 10SM CLR 23/22 A3013 RMK AO2

Conditions at: KCGC observed 18 June 2018  11:15 UTC
Temperature: 22.0°C (72°F)
Dewpoint: 22.0°C (72°F) [RH = 100%]
Pressure (altimeter): 30.13 inches Hg (1020.4 mb)
Winds: calm
Visibility: 10 or more miles (16+ km)
Ceiling: at least 12,000 feet AGL
Clouds: sky clear below 12,000 feet AGL
Present Weather: automated observation with no human augmentation;
there may or may not be significant weather present at this time
KCGC 181115Z AUTO 00000KT 10SM CLR 22/22 A3013 RMK AO2

Conditions at: KCGC observed 18 June 2018  10:55 UTC
Temperature: 22.0°C (72°F)
Dewpoint: 22.0°C (72°F) [RH = 100%]
Pressure (altimeter): 30.12 inches Hg (1020.1 mb)
Winds: calm
Visibility: 10 or more miles (16+ km)
Ceiling: at least 12,000 feet AGL
Clouds: sky clear below 12,000 feet AGL
Present Weather: automated observation with no human augmentation;
there may or may not be significant weather present at this time
KCGC 181055Z AUTO 00000KT 10SM CLR 22/22 A3012 RMK AO2

Conditions at: KCGC observed 18 June 2018  10:35 UTC
Temperature: 22.0°C (72°F)
Dewpoint: 22.0°C (72°F) [RH = 100%]
Pressure (altimeter): 30.12 inches Hg (1020.1 mb)
Winds: calm
Visibility: 10 or more miles (16+ km)
Ceiling: at least 12,000 feet AGL
Clouds: sky clear below 12,000 feet AGL
Present Weather: automated observation with no human augmentation;
there may or may not be significant weather present at this time
KCGC 181035Z AUTO 00000KT 10SM CLR 22/22 A3012 RMK AO2

Conditions at: KCGC observed 18 June 2018  10:15 UTC
Temperature: 22.0°C (72°F)
Dewpoint: 22.0°C (72°F) [RH = 100%]
Pressure (altimeter): 30.11 inches Hg (1019.7 mb)
Winds: calm
Visibility: 10 or more miles (16+ km)
Ceiling: at least 12,000 feet AGL
Clouds: sky clear below 12,000 feet AGL
Present Weather: automated observation with no human augmentation;
there may or may not be significant weather present at this time
KCGC 181015Z AUTO 00000KT 10SM CLR 22/22 A3011 RMK AO2

Conditions at: KCGC observed 18 June 2018  09:55 UTC
Temperature: 22.0°C (72°F)
Dewpoint: 22.0°C (72°F) [RH = 100%]
Pressure (altimeter): 30.11 inches Hg (1019.7 mb)
Winds: calm
Visibility: 10 or more miles (16+ km)
Ceiling: at least 12,000 feet AGL
Clouds: sky clear below 12,000 feet AGL
Present Weather: automated observation with no human augmentation;
there may or may not be significant weather present at this time
KCGC 180955Z AUTO 00000KT 10SM CLR 22/22 A3011 RMK AO2

Conditions at: KCGC observed 18 June 2018  09:35 UTC
Temperature: 22.0°C (72°F)
Dewpoint: 22.0°C (72°F) [RH = 100%]
Pressure (altimeter): 30.10 inches Hg (1019.4 mb)
Winds: calm
Visibility: 10 or more miles (16+ km)
Ceiling: at least 12,000 feet AGL
Clouds: sky clear below 12,000 feet AGL
Present Weather: automated observation with no human augmentation;
there may or may not be significant weather present at this time
KCGC 180935Z AUTO 00000KT 10SM CLR 22/22 A3010 RMK AO2

Conditions at: KCGC observed 18 June 2018  09:15 UTC
Temperature: 22.0°C (72°F)
Dewpoint: 22.0°C (72°F) [RH = 100%]
Pressure (altimeter): 30.09 inches Hg (1019.0 mb)
Winds: calm
Visibility: 10 or more miles (16+ km)
Ceiling: at least 12,000 feet AGL
Clouds: sky clear below 12,000 feet AGL
Present Weather: automated observation with no human augmentation;
there may or may not be significant weather present at this time
KCGC 180915Z AUTO 00000KT 10SM CLR 22/22 A3009 RMK AO2

Conditions at: KCGC observed 18 June 2018  08:55 UTC
Temperature: 22.0°C (72°F)
Dewpoint: 22.0°C (72°F) [RH = 100%]
Pressure (altimeter): 30.09 inches Hg (1019.0 mb)
Winds: calm
Visibility: 10 or more miles (16+ km)
Ceiling: at least 12,000 feet AGL
Clouds: sky clear below 12,000 feet AGL
Present Weather: automated observation with no human augmentation;
there may or may not be significant weather present at this time
KCGC 180855Z AUTO 00000KT 10SM CLR 22/22 A3009 RMK AO2

Conditions at: KCGC observed 18 June 2018  08:35 UTC
Temperature: 22.0°C (72°F)
Dewpoint: 22.0°C (72°F) [RH = 100%]
Pressure (altimeter): 30.09 inches Hg (1019.0 mb)
Winds: calm
Visibility: 10 or more miles (16+ km)
Ceiling: at least 12,000 feet AGL
Clouds: sky clear below 12,000 feet AGL
Present Weather: automated observation with no human augmentation;
there may or may not be significant weather present at this time
KCGC 180835Z AUTO 00000KT 10SM CLR 22/22 A3009 RMK AO2

Conditions at: KCGC observed 18 June 2018  08:15 UTC
Temperature: 23.0°C (73°F)
Dewpoint: 22.0°C (72°F) [RH = 94%]
Pressure (altimeter): 30.09 inches Hg (1019.0 mb)
Winds: calm
Visibility: 7 miles (11 km)
Ceiling: at least 12,000 feet AGL
Clouds: sky clear below 12,000 feet AGL
Present Weather: automated observation with no human augmentation;
there may or may not be significant weather present at this time
KCGC 180815Z AUTO 00000KT 7SM CLR 23/22 A3009 RMK AO2

Conditions at: KCGC observed 18 June 2018  07:35 UTC
Temperature: 23.0°C (73°F)
Dewpoint: 22.0°C (72°F) [RH = 94%]
Pressure (altimeter): 30.09 inches Hg (1019.0 mb)
Winds: calm
Visibility: 10 or more miles (16+ km)
Ceiling: at least 12,000 feet AGL
Clouds: sky clear below 12,000 feet AGL
Present Weather: automated observation with no human augmentation;
there may or may not be significant weather present at this time
KCGC 180735Z AUTO 00000KT 10SM CLR 23/22 A3009 RMK AO2

Conditions at: KCGC observed 18 June 2018  07:15 UTC
Temperature: 23.0°C (73°F)
Dewpoint: 22.0°C (72°F) [RH = 94%]
Pressure (altimeter): 30.10 inches Hg (1019.4 mb)
Winds: calm
Visibility: 10 or more miles (16+ km)
Ceiling: at least 12,000 feet AGL
Clouds: sky clear below 12,000 feet AGL
Present Weather: automated observation with no human augmentation;
there may or may not be significant weather present at this time
KCGC 180715Z AUTO 00000KT 10SM CLR 23/22 A3010 RMK AO2

Conditions at: KCGC observed 18 June 2018  06:55 UTC
Temperature: 23.0°C (73°F)
Dewpoint: 22.0°C (72°F) [RH = 94%]
Pressure (altimeter): 30.10 inches Hg (1019.4 mb)
Winds: calm
Visibility: 10 or more miles (16+ km)
Ceiling: at least 12,000 feet AGL
Clouds: sky clear below 12,000 feet AGL
Present Weather: automated observation with no human augmentation;
there may or may not be significant weather present at this time
KCGC 180655Z AUTO 00000KT 10SM CLR 23/22 A3010 RMK AO2

Conditions at: KCGC observed 18 June 2018  06:35 UTC
Temperature: 23.0°C (73°F)
Dewpoint: 22.0°C (72°F) [RH = 94%]
Pressure (altimeter): 30.11 inches Hg (1019.7 mb)
Winds: calm
Visibility: 10 or more miles (16+ km)
Ceiling: at least 12,000 feet AGL
Clouds: sky clear below 12,000 feet AGL
Present Weather: automated observation with no human augmentation;
there may or may not be significant weather present at this time
KCGC 180635Z AUTO 00000KT 10SM CLR 23/22 A3011 RMK AO2

Conditions at: KCGC observed 18 June 2018  06:15 UTC
Temperature: 23.0°C (73°F)
Dewpoint: 22.0°C (72°F) [RH = 94%]
Pressure (altimeter): 30.12 inches Hg (1020.1 mb)
Winds: calm
Visibility: 10 or more miles (16+ km)
Ceiling: at least 12,000 feet AGL
Clouds: sky clear below 12,000 feet AGL
Present Weather: automated observation with no human augmentation;
there may or may not be significant weather present at this time
KCGC 180615Z AUTO 00000KT 10SM CLR 23/22 A3012 RMK AO2

Conditions at: KCGC observed 18 June 2018  05:55 UTC
Temperature: 23.0°C (73°F)
Dewpoint: 23.0°C (73°F) [RH = 100%]
Pressure (altimeter): 30.12 inches Hg (1020.1 mb)
Winds: calm
Visibility: 10 or more miles (16+ km)
Ceiling: at least 12,000 feet AGL
Clouds: sky clear below 12,000 feet AGL
Present Weather: automated observation with no human augmentation;
there may or may not be significant weather present at this time
KCGC 180555Z AUTO 00000KT 10SM CLR 23/23 A3012 RMK AO2

Conditions at: KCGC observed 18 June 2018  05:35 UTC
Temperature: 23.0°C (73°F)
Dewpoint: 23.0°C (73°F) [RH = 100%]
Pressure (altimeter): 30.12 inches Hg (1020.1 mb)
Winds: calm
Visibility: 7 miles (11 km)
Ceiling: at least 12,000 feet AGL
Clouds: sky clear below 12,000 feet AGL
Present Weather: automated observation with no human augmentation;
there may or may not be significant weather present at this time
KCGC 180535Z AUTO 00000KT 7SM CLR 23/23 A3012 RMK AO2

Conditions at: KCGC observed 18 June 2018  04:55 UTC
Temperature: 23.0°C (73°F)
Dewpoint: 23.0°C (73°F) [RH = 100%]
Pressure (altimeter): 30.13 inches Hg (1020.4 mb)
Winds: calm
Visibility: 10 or more miles (16+ km)
Ceiling: at least 12,000 feet AGL
Clouds: sky clear below 12,000 feet AGL
Present Weather: automated observation with no human augmentation;
there may or may not be significant weather present at this time
KCGC 180455Z AUTO 00000KT 10SM CLR 23/23 A3013 RMK AO2

Conditions at: KCGC observed 18 June 2018  04:35 UTC
Temperature: 23.0°C (73°F)
Dewpoint: 23.0°C (73°F) [RH = 100%]
Pressure (altimeter): 30.13 inches Hg (1020.4 mb)
Winds: calm
Visibility: 10 or more miles (16+ km)
Ceiling: at least 12,000 feet AGL
Clouds: sky clear below 12,000 feet AGL
Present Weather: automated observation with no human augmentation;
there may or may not be significant weather present at this time
KCGC 180435Z AUTO 00000KT 10SM CLR 23/23 A3013 RMK AO2

Conditions at: KCGC observed 18 June 2018  04:15 UTC
Temperature: 24.0°C (75°F)
Dewpoint: 22.0°C (72°F) [RH = 89%]
Pressure (altimeter): 30.13 inches Hg (1020.4 mb)
Winds: calm
Visibility: 10 or more miles (16+ km)
Ceiling: at least 12,000 feet AGL
Clouds: sky clear below 12,000 feet AGL
Present Weather: automated observation with no human augmentation;
there may or may not be significant weather present at this time
KCGC 180415Z AUTO 00000KT 10SM CLR 24/22 A3013 RMK AO2

Conditions at: KCGC observed 18 June 2018  03:55 UTC
Temperature: 23.0°C (73°F)
Dewpoint: 23.0°C (73°F) [RH = 100%]
Pressure (altimeter): 30.13 inches Hg (1020.4 mb)
Winds: from the WNW (290 degrees) at 3 MPH (3 knots; 1.6 m/s)
Visibility: 10 or more miles (16+ km)
Ceiling: at least 12,000 feet AGL
Clouds: sky clear below 12,000 feet AGL
Present Weather: automated observation with no human augmentation;
there may or may not be significant weather present at this time
KCGC 180355Z AUTO 29003KT 10SM CLR 23/23 A3013 RMK AO2

Conditions at: KCGC observed 18 June 2018  03:35 UTC
Temperature: 23.0°C (73°F)
Dewpoint: 23.0°C (73°F) [RH = 100%]
Pressure (altimeter): 30.13 inches Hg (1020.4 mb)
Winds: calm
Visibility: 10 or more miles (16+ km)
Ceiling: at least 12,000 feet AGL
Clouds: sky clear below 12,000 feet AGL
Present Weather: automated observation with no human augmentation;
there may or may not be significant weather present at this time
KCGC 180335Z AUTO 00000KT 10SM CLR 23/23 A3013 RMK AO2

Conditions at: KCGC observed 18 June 2018  03:15 UTC
Temperature: 24.0°C (75°F)
Dewpoint: 23.0°C (73°F) [RH = 94%]
Pressure (altimeter): 30.13 inches Hg (1020.4 mb)
Winds: calm
Visibility: 10 or more miles (16+ km)
Ceiling: at least 12,000 feet AGL
Clouds: sky clear below 12,000 feet AGL
Present Weather: automated observation with no human augmentation;
there may or may not be significant weather present at this time
KCGC 180315Z AUTO 00000KT 10SM CLR 24/23 A3013 RMK AO2

Conditions at: KCGC observed 18 June 2018  02:55 UTC
Temperature: 24.0°C (75°F)
Dewpoint: 23.0°C (73°F) [RH = 94%]
Pressure (altimeter): 30.13 inches Hg (1020.4 mb)
Winds: calm
Visibility: 10 or more miles (16+ km)
Ceiling: at least 12,000 feet AGL
Clouds: sky clear below 12,000 feet AGL
Present Weather: automated observation with no human augmentation;
there may or may not be significant weather present at this time
KCGC 180255Z AUTO 00000KT 10SM CLR 24/23 A3013 RMK AO2

Conditions at: KCGC observed 18 June 2018  02:35 UTC
Temperature: 24.0°C (75°F)
Dewpoint: 23.0°C (73°F) [RH = 94%]
Pressure (altimeter): 30.14 inches Hg (1020.7 mb)
Winds: calm
Visibility: 10 or more miles (16+ km)
Ceiling: at least 12,000 feet AGL
Clouds: sky clear below 12,000 feet AGL
Present Weather: automated observation with no human augmentation;
there may or may not be significant weather present at this time
KCGC 180235Z AUTO 00000KT 10SM CLR 24/23 A3014 RMK AO2

Conditions at: KCGC observed 18 June 2018  02:15 UTC
Temperature: 24.0°C (75°F)
Dewpoint: 23.0°C (73°F) [RH = 94%]
Pressure (altimeter): 30.12 inches Hg (1020.1 mb)
Winds: calm
Visibility: 10 or more miles (16+ km)
Ceiling: at least 12,000 feet AGL
Clouds: sky clear below 12,000 feet AGL
Present Weather: automated observation with no human augmentation;
there may or may not be significant weather present at this time
KCGC 180215Z AUTO 00000KT 10SM CLR 24/23 A3012 RMK AO2

Conditions at: KCGC observed 18 June 2018  01:55 UTC
Temperature: 25.0°C (77°F)
Dewpoint: 23.0°C (73°F) [RH = 89%]
Pressure (altimeter): 30.11 inches Hg (1019.7 mb)
Winds: calm
Visibility: 10 or more miles (16+ km)
Ceiling: at least 12,000 feet AGL
Clouds: scattered clouds at 3600 feet AGL
scattered clouds at 4500 feet AGL
scattered clouds at 6000 feet AGL
Present Weather: -DZ  (light drizzle)
KCGC 180155Z AUTO 00000KT 10SM -DZ SCT036 SCT045 SCT060 25/23 A3011 RMK AO2 LTG DSNT S P0001

Conditions at: KCGC observed 18 June 2018  01:35 UTC
Temperature: 25.0°C (77°F)
Dewpoint: 23.0°C (73°F) [RH = 89%]
Pressure (altimeter): 30.12 inches Hg (1020.1 mb)
Winds: calm
Visibility: 10 or more miles (16+ km)
Ceiling: at least 12,000 feet AGL
Clouds: scattered clouds at 6000 feet AGL
scattered clouds at 7000 feet AGL
scattered clouds at 9500 feet AGL
Present Weather: automated observation with no human augmentation;
there may or may not be significant weather present at this time
KCGC 180135Z AUTO 00000KT 10SM SCT060 SCT070 SCT095 25/23 A3012 RMK AO2 LTG DSNT S P0001

Conditions at: KCGC observed 18 June 2018  01:15 UTC
Temperature: 25.0°C (77°F)
Dewpoint: 23.0°C (73°F) [RH = 89%]
Pressure (altimeter): 30.13 inches Hg (1020.4 mb)
Winds: calm
Visibility: 10 or more miles (16+ km)
Ceiling: at least 12,000 feet AGL
Clouds: scattered clouds at 3100 feet AGL
scattered clouds at 5000 feet AGL
scattered clouds at 7500 feet AGL
Present Weather: VCTS  (thunderstorm in vicinity)
KCGC 180115Z AUTO 00000KT 10SM VCTS SCT031 SCT050 SCT075 25/23 A3013 RMK AO2 LTG DSNT S AND SW

Conditions at: KCGC observed 18 June 2018  00:55 UTC
Temperature: 25.0°C (77°F)
Dewpoint: 23.0°C (73°F) [RH = 89%]
Pressure (altimeter): 30.12 inches Hg (1020.1 mb)
Winds: from the NW (320 degrees) at 3 MPH (3 knots; 1.6 m/s)
Visibility: 10 or more miles (16+ km)
Ceiling: at least 12,000 feet AGL
Clouds: scattered clouds at 6500 feet AGL
scattered clouds at 9500 feet AGL
scattered clouds at 12000 feet AGL
Present Weather: -TSRA  (light rain associated with thunderstorm(s))
KCGC 180055Z AUTO 32003KT 10SM -TSRA SCT065 SCT095 SCT120 25/23 A3012 RMK AO2 LTG DSNT S THRU N P0005

Conditions at: KCGC observed 18 June 2018  00:35 UTC
Temperature: 25.0°C (77°F)
Dewpoint: 23.0°C (73°F) [RH = 89%]
Pressure (altimeter): 30.13 inches Hg (1020.4 mb)
Winds: from the WSW (250 degrees) at 3 MPH (3 knots; 1.6 m/s)
Visibility: 5 miles (8 km)
Ceiling: 6500 feet AGL
Clouds: scattered clouds at 4400 feet AGL
scattered clouds at 5500 feet AGL
broken clouds at 6500 feet AGL
Present Weather: -TSRA  (light rain associated with thunderstorm(s))
KCGC 180035Z AUTO 25003KT 5SM -TSRA SCT044 SCT055 BKN065 25/23 A3013 RMK AO2 LTG DSNT ALQS P0004

Conditions at: KCGC observed 18 June 2018  00:15 UTC
Temperature: 27.0°C (81°F)
Dewpoint: 21.0°C (70°F) [RH = 70%]
Pressure (altimeter): 30.13 inches Hg (1020.4 mb)
Winds: from the WNW (290 degrees) at 7 MPH (6 knots; 3.1 m/s)
Visibility: 10 or more miles (16+ km)
Ceiling: 4700 feet AGL
Clouds: broken clouds at 4700 feet AGL
overcast cloud deck at 5500 feet AGL
Present Weather: TS  (thunderstorm)
KCGC 180015Z AUTO 29006KT 10SM TS BKN047 OVC055 27/21 A3013 RMK AO2 LTG DSNT ALQS

Conditions at: KCGC observed 17 June 2018  23:55 UTC
Temperature: 28.0°C (82°F)
Dewpoint: 21.0°C (70°F) [RH = 66%]
Pressure (altimeter): 30.11 inches Hg (1019.7 mb)
Winds: from the NE (50 degrees) at 5 MPH (4 knots; 2.1 m/s)
Visibility: 10 or more miles (16+ km)
Ceiling: at least 12,000 feet AGL
Clouds: scattered clouds at 4800 feet AGL
scattered clouds at 6500 feet AGL
scattered clouds at 8000 feet AGL
Present Weather: TS  (thunderstorm)
KCGC 172355Z AUTO 05004KT 10SM TS SCT048 SCT065 SCT080 28/21 A3011 RMK AO2 LTG DSNT ALQS

Conditions at: KCGC observed 17 June 2018  23:35 UTC
Temperature: 30.0°C (86°F)
Dewpoint: 22.0°C (72°F) [RH = 62%]
Pressure (altimeter): 30.07 inches Hg (1018.4 mb)
Winds: from the E (100 degrees) at 9 MPH (8 knots; 4.2 m/s)
gusting to 16 MPH (14 knots; 7.3 m/s)
Visibility: 10 or more miles (16+ km)
Ceiling: 8000 feet AGL
Clouds: scattered clouds at 3700 feet AGL
scattered clouds at 4800 feet AGL
broken clouds at 8000 feet AGL
Present Weather: TS  (thunderstorm)
KCGC 172335Z AUTO 10008G14KT 10SM TS SCT037 SCT048 BKN080 30/22 A3007 RMK AO2 LTG DSNT N S AND NW

Conditions at: KCGC observed 17 June 2018  23:15 UTC
Temperature: 31.0°C (88°F)
Dewpoint: 23.0°C (73°F) [RH = 63%]
Pressure (altimeter): 30.07 inches Hg (1018.4 mb)
Winds: from the NW (320 degrees) at 3 MPH (3 knots; 1.6 m/s)
Visibility: 10 or more miles (16+ km)
Ceiling: at least 12,000 feet AGL
Clouds: sky clear below 12,000 feet AGL
Present Weather: TS  (thunderstorm)
KCGC 172315Z AUTO 32003KT 10SM TS CLR 31/23 A3007 RMK AO2 LTG DSNT N AND S

Conditions at: KCGC observed 17 June 2018  22:55 UTC
Temperature: 31.0°C (88°F)
Dewpoint: 23.0°C (73°F) [RH = 63%]
Pressure (altimeter): 30.07 inches Hg (1018.4 mb)
Winds: calm
Visibility: 10 or more miles (16+ km)
Ceiling: at least 12,000 feet AGL
Clouds: scattered clouds at 8500 feet AGL
Present Weather: VCTS  (thunderstorm in vicinity)
KCGC 172255Z AUTO 00000KT 10SM VCTS SCT085 31/23 A3007 RMK AO2 LTG DSNT N AND S

Conditions at: KCGC observed 17 June 2018  22:35 UTC
Temperature: 31.0°C (88°F)
Dewpoint: 22.0°C (72°F) [RH = 59%]
Pressure (altimeter): 30.07 inches Hg (1018.4 mb)
Winds: from the WNW (300 degrees) at 3 MPH (3 knots; 1.6 m/s)
Visibility: 10 or more miles (16+ km)
Ceiling: at least 12,000 feet AGL
Clouds: scattered clouds at 5000 feet AGL
scattered clouds at 6500 feet AGL
scattered clouds at 7500 feet AGL
Present Weather: automated observation with no human augmentation;
there may or may not be significant weather present at this time
KCGC 172235Z AUTO 30003KT 10SM SCT050 SCT065 SCT075 31/22 A3007 RMK AO2 LTG DSNT N NE AND S

Conditions at: KCGC observed 17 June 2018  22:15 UTC
Temperature: 31.0°C (88°F)
Dewpoint: 25.0°C (77°F) [RH = 71%]
Pressure (altimeter): 30.06 inches Hg (1018.0 mb)
Winds: from the W (280 degrees) at 7 MPH (6 knots; 3.1 m/s)
Visibility: 10 or more miles (16+ km)
Ceiling: 7500 feet AGL
Clouds: scattered clouds at 5000 feet AGL
broken clouds at 7500 feet AGL
Present Weather: automated observation with no human augmentation;
there may or may not be significant weather present at this time
KCGC 172215Z AUTO 28006KT 10SM SCT050 BKN075 31/25 A3006 RMK AO2 LTG DSNT NE AND S

Conditions at: KCGC observed 17 June 2018  21:55 UTC
Temperature: 31.0°C (88°F)
Dewpoint: 24.0°C (75°F) [RH = 66%]
Pressure (altimeter): 30.07 inches Hg (1018.4 mb)
Winds: from the W (280 degrees) at 10 MPH (9 knots; 4.7 m/s)
Visibility: 10 or more miles (16+ km)
Ceiling: at least 12,000 feet AGL
Clouds: scattered clouds at 5000 feet AGL
scattered clouds at 8500 feet AGL
Present Weather: automated observation with no human augmentation;
there may or may not be significant weather present at this time
KCGC 172155Z AUTO 28009KT 10SM SCT050 SCT085 31/24 A3007 RMK AO2 LTG DSNT S

Conditions at: KCGC observed 17 June 2018  21:35 UTC
Temperature: 31.0°C (88°F)
Dewpoint: 24.0°C (75°F) [RH = 66%]
Pressure (altimeter): 30.07 inches Hg (1018.4 mb)
Winds: from the W (280 degrees) at 5 MPH (4 knots; 2.1 m/s)
Visibility: 10 or more miles (16+ km)
Ceiling: 5000 feet AGL
Clouds: broken clouds at 5000 feet AGL
broken clouds at 7500 feet AGL
broken clouds at 8500 feet AGL
Present Weather: VCTS  (thunderstorm in vicinity)
KCGC 172135Z AUTO 28004KT 10SM VCTS BKN050 BKN075 BKN085 31/24 A3007 RMK AO2 LTG DSNT S

Conditions at: KCGC observed 17 June 2018  21:15 UTC
Temperature: 31.0°C (88°F)
Dewpoint: 25.0°C (77°F) [RH = 71%]
Pressure (altimeter): 30.07 inches Hg (1018.4 mb)
Winds: from the WNW (290 degrees) at 8 MPH (7 knots; 3.6 m/s)
Visibility: 10 or more miles (16+ km)
Ceiling: 5000 feet AGL
Clouds: broken clouds at 5000 feet AGL
broken clouds at 6500 feet AGL
Present Weather: automated observation with no human augmentation;
there may or may not be significant weather present at this time
KCGC 172115Z AUTO 29007KT 10SM BKN050 BKN065 31/25 A3007 RMK AO2 LTG DSNT N NE AND S

Conditions at: KCGC observed 17 June 2018  20:55 UTC
Temperature: 31.0°C (88°F)
Dewpoint: 24.0°C (75°F) [RH = 66%]
Pressure (altimeter): 30.08 inches Hg (1018.7 mb)
Winds: from the W (270 degrees) at 7 MPH (6 knots; 3.1 m/s)
Visibility: 10 or more miles (16+ km)
Ceiling: 5000 feet AGL
Clouds: broken clouds at 5000 feet AGL
broken clouds at 7500 feet AGL
Present Weather: automated observation with no human augmentation;
there may or may not be significant weather present at this time
KCGC 172055Z AUTO 27006KT 10SM BKN050 BKN075 31/24 A3008 RMK AO2 LTG DSNT N

Conditions at: KCGC observed 17 June 2018  20:35 UTC
Temperature: 32.0°C (90°F)
Dewpoint: 23.0°C (73°F) [RH = 59%]
Pressure (altimeter): 30.08 inches Hg (1018.7 mb)
Winds: from the NNW (330 degrees) at 5 MPH (4 knots; 2.1 m/s)
Visibility: 10 or more miles (16+ km)
Ceiling: 5000 feet AGL
Clouds: broken clouds at 5000 feet AGL
broken clouds at 7500 feet AGL
Present Weather: automated observation with no human augmentation;
there may or may not be significant weather present at this time
KCGC 172035Z AUTO 33004KT 10SM BKN050 BKN075 32/23 A3008 RMK AO2 PNO

Conditions at: KCGC observed 17 June 2018  20:15 UTC
Temperature: 33.0°C (91°F)
Dewpoint: 22.0°C (72°F) [RH = 53%]
Pressure (altimeter): 30.08 inches Hg (1018.7 mb)
Winds: from the NW (310 degrees) at 5 MPH (4 knots; 2.1 m/s)
Visibility: 10 or more miles (16+ km)
Ceiling: at least 12,000 feet AGL
Clouds: scattered clouds at 5000 feet AGL
scattered clouds at 8500 feet AGL
Present Weather: automated observation with no human augmentation;
there may or may not be significant weather present at this time
KCGC 172015Z AUTO 31004KT 10SM SCT050 SCT085 33/22 A3008 RMK AO2

Conditions at: KCGC observed 17 June 2018  19:55 UTC
Temperature: 33.0°C (91°F)
Dewpoint: 22.0°C (72°F) [RH = 53%]
Pressure (altimeter): 30.08 inches Hg (1018.7 mb)
Winds: from the N (10 degrees) at 5 MPH (4 knots; 2.1 m/s)
Visibility: 10 or more miles (16+ km)
Ceiling: 8500 feet AGL
Clouds: scattered clouds at 5000 feet AGL
scattered clouds at 7000 feet AGL
broken clouds at 8500 feet AGL
Present Weather: automated observation with no human augmentation;
there may or may not be significant weather present at this time
KCGC 171955Z AUTO 01004KT 10SM SCT050 SCT070 BKN085 33/22 A3008 RMK AO2 LTG DSNT E

Conditions at: KCGC observed 17 June 2018  19:35 UTC
Temperature: 33.0°C (91°F)
Dewpoint: 21.0°C (70°F) [RH = 49%]
Pressure (altimeter): 30.08 inches Hg (1018.7 mb)
Winds: calm
Visibility: 10 or more miles (16+ km)
Ceiling: 7000 feet AGL
Clouds: scattered clouds at 5000 feet AGL
broken clouds at 7000 feet AGL
Present Weather: automated observation with no human augmentation;
there may or may not be significant weather present at this time
KCGC 171935Z AUTO 00000KT 10SM SCT050 BKN070 33/21 A3008 RMK AO2

Conditions at: KCGC observed 17 June 2018  19:15 UTC
Temperature: 34.0°C (93°F)
Dewpoint: 21.0°C (70°F) [RH = 47%]
Pressure (altimeter): 30.09 inches Hg (1019.0 mb)
Winds: calm
Visibility: 10 or more miles (16+ km)
Ceiling: at least 12,000 feet AGL
Clouds: scattered clouds at 6000 feet AGL
scattered clouds at 10000 feet AGL
Present Weather: automated observation with no human augmentation;
there may or may not be significant weather present at this time
KCGC 171915Z AUTO 00000KT 10SM SCT060 SCT100 34/21 A3009 RMK AO2

Conditions at: KCGC observed 17 June 2018  18:55 UTC
Temperature: 34.0°C (93°F)
Dewpoint: 22.0°C (72°F) [RH = 50%]
Pressure (altimeter): 30.09 inches Hg (1019.0 mb)
Winds: from the NE (50 degrees) at 6 MPH (5 knots; 2.6 m/s)
Visibility: 10 or more miles (16+ km)
Ceiling: 6500 feet AGL
Clouds: scattered clouds at 4800 feet AGL
scattered clouds at 5500 feet AGL
broken clouds at 6500 feet AGL
Present Weather: automated observation with no human augmentation;
there may or may not be significant weather present at this time
KCGC 171855Z AUTO 05005KT 10SM SCT048 SCT055 BKN065 34/22 A3009 RMK AO2

Conditions at: KCGC observed 17 June 2018  18:35 UTC
Temperature: 33.0°C (91°F)
Dewpoint: 21.0°C (70°F) [RH = 49%]
Pressure (altimeter): 30.10 inches Hg (1019.4 mb)
Winds: from the N (10 degrees) at 7 MPH (6 knots; 3.1 m/s)
Visibility: 10 or more miles (16+ km)
Ceiling: 4800 feet AGL
Clouds: broken clouds at 4800 feet AGL
broken clouds at 6000 feet AGL
broken clouds at 7500 feet AGL
Present Weather: automated observation with no human augmentation;
there may or may not be significant weather present at this time
KCGC 171835Z AUTO 01006KT 10SM BKN048 BKN060 BKN075 33/21 A3010 RMK AO2

Conditions at: KCGC observed 17 June 2018  18:15 UTC
Temperature: 32.0°C (90°F)
Dewpoint: 21.0°C (70°F) [RH = 52%]
Pressure (altimeter): 30.11 inches Hg (1019.7 mb)
Winds: from the ESE (110 degrees) at 3 MPH (3 knots; 1.6 m/s)
Visibility: 10 or more miles (16+ km)
Ceiling: 4800 feet AGL
Clouds: broken clouds at 4800 feet AGL
broken clouds at 5000 feet AGL
Present Weather: automated observation with no human augmentation;
there may or may not be significant weather present at this time
KCGC 171815Z AUTO 11003KT 10SM BKN048 BKN050 32/21 A3011 RMK AO2

Conditions at: KCGC observed 17 June 2018  17:55 UTC
Temperature: 32.0°C (90°F)
Dewpoint: 21.0°C (70°F) [RH = 52%]
Pressure (altimeter): 30.12 inches Hg (1020.1 mb)
Winds: from the E (80 degrees) at 5 MPH (4 knots; 2.1 m/s)
Visibility: 10 or more miles (16+ km)
Ceiling: 4900 feet AGL
Clouds: broken clouds at 4900 feet AGL
Present Weather: automated observation with no human augmentation;
there may or may not be significant weather present at this time
KCGC 171755Z AUTO 08004KT 10SM BKN049 32/21 A3012 RMK AO2

Conditions at: KCGC observed 17 June 2018  17:35 UTC
Temperature: 33.0°C (91°F)
Dewpoint: 20.0°C (68°F) [RH = 46%]
Pressure (altimeter): 30.12 inches Hg (1020.1 mb)
Winds: calm
Visibility: 10 or more miles (16+ km)
Ceiling: at least 12,000 feet AGL
Clouds: sky clear below 12,000 feet AGL
Present Weather: automated observation with no human augmentation;
there may or may not be significant weather present at this time
KCGC 171735Z AUTO 00000KT 10SM CLR 33/20 A3012 RMK AO2

Conditions at: KCGC observed 17 June 2018  17:15 UTC
Temperature: 32.0°C (90°F)
Dewpoint: 22.0°C (72°F) [RH = 56%]
Pressure (altimeter): 30.13 inches Hg (1020.4 mb)
Winds: from the NE (50 degrees) at 7 MPH (6 knots; 3.1 m/s)
Visibility: 10 or more miles (16+ km)
Ceiling: at least 12,000 feet AGL
Clouds: scattered clouds at 3900 feet AGL
scattered clouds at 4800 feet AGL
scattered clouds at 6000 feet AGL
Present Weather: automated observation with no human augmentation;
there may or may not be significant weather present at this time
KCGC 171715Z AUTO 05006KT 10SM SCT039 SCT048 SCT060 32/22 A3013 RMK AO2

Conditions at: KCGC observed 17 June 2018  16:55 UTC
Temperature: 31.0°C (88°F)
Dewpoint: 22.0°C (72°F) [RH = 59%]
Pressure (altimeter): 30.14 inches Hg (1020.7 mb)
Winds: from the NNE (20 degrees) at 3 MPH (3 knots; 1.6 m/s)
Visibility: 10 or more miles (16+ km)
Ceiling: 5000 feet AGL
Clouds: scattered clouds at 4100 feet AGL
broken clouds at 5000 feet AGL
Present Weather: automated observation with no human augmentation;
there may or may not be significant weather present at this time
KCGC 171655Z AUTO 02003KT 10SM SCT041 BKN050 31/22 A3014 RMK AO2 LTG DSNT N

Conditions at: KCGC observed 17 June 2018  16:35 UTC
Temperature: 32.0°C (90°F)
Dewpoint: 22.0°C (72°F) [RH = 56%]
Pressure (altimeter): 30.14 inches Hg (1020.7 mb)
Winds: from the NE (50 degrees) at 3 MPH (3 knots; 1.6 m/s)
Visibility: 10 or more miles (16+ km)
Ceiling: at least 12,000 feet AGL
Clouds: scattered clouds at 4100 feet AGL
Present Weather: automated observation with no human augmentation;
there may or may not be significant weather present at this time
KCGC 171635Z AUTO 05003KT 10SM SCT041 32/22 A3014 RMK AO2

Conditions at: KCGC observed 17 June 2018  16:15 UTC
Temperature: 31.0°C (88°F)
Dewpoint: 21.0°C (70°F) [RH = 55%]
Pressure (altimeter): 30.14 inches Hg (1020.7 mb)
Winds: from the ENE (60 degrees) at 7 MPH (6 knots; 3.1 m/s)
Visibility: 10 or more miles (16+ km)
Ceiling: 4100 feet AGL
Clouds: broken clouds at 4100 feet AGL
broken clouds at 5000 feet AGL
Present Weather: automated observation with no human augmentation;
there may or may not be significant weather present at this time
KCGC 171615Z AUTO 06006KT 10SM BKN041 BKN050 31/21 A3014 RMK AO2

Conditions at: KCGC observed 17 June 2018  15:55 UTC
Temperature: 32.0°C (90°F)
Dewpoint: 22.0°C (72°F) [RH = 56%]
Pressure (altimeter): 30.15 inches Hg (1021.1 mb)
Winds: from the ENE (60 degrees) at 5 MPH (4 knots; 2.1 m/s)
Visibility: 10 or more miles (16+ km)
Ceiling: at least 12,000 feet AGL
Clouds: scattered clouds at 3500 feet AGL
scattered clouds at 4300 feet AGL
scattered clouds at 5000 feet AGL
Present Weather: automated observation with no human augmentation;
there may or may not be significant weather present at this time
KCGC 171555Z AUTO 06004KT 10SM SCT035 SCT043 SCT050 32/22 A3015 RMK AO2

Conditions at: KCGC observed 17 June 2018  15:35 UTC
Temperature: 31.0°C (88°F)
Dewpoint: 22.0°C (72°F) [RH = 59%]
Pressure (altimeter): 30.14 inches Hg (1020.7 mb)
Winds: from the S (190 degrees) at 7 MPH (6 knots; 3.1 m/s)
Visibility: 10 or more miles (16+ km)
Ceiling: 3300 feet AGL
Clouds: broken clouds at 3300 feet AGL
Present Weather: automated observation with no human augmentation;
there may or may not be significant weather present at this time
KCGC 171535Z AUTO 19006KT 10SM BKN033 31/22 A3014 RMK AO2

Conditions at: KCGC observed 17 June 2018  15:15 UTC
Temperature: 30.0°C (86°F)
Dewpoint: 23.0°C (73°F) [RH = 66%]
Pressure (altimeter): 30.15 inches Hg (1021.1 mb)
Winds: from the E (90 degrees) at 3 MPH (3 knots; 1.6 m/s)
Visibility: 10 or more miles (16+ km)
Ceiling: at least 12,000 feet AGL
Clouds: scattered clouds at 3100 feet AGL
Present Weather: automated observation with no human augmentation;
there may or may not be significant weather present at this time
KCGC 171515Z AUTO 09003KT 10SM SCT031 30/23 A3015 RMK AO2 LTG DSNT N

Conditions at: KCGC observed 17 June 2018  14:55 UTC
Temperature: 30.0°C (86°F)
Dewpoint: 23.0°C (73°F) [RH = 66%]
Pressure (altimeter): 30.15 inches Hg (1021.1 mb)
Winds: calm
Visibility: 10 or more miles (16+ km)
Ceiling: at least 12,000 feet AGL
Clouds: scattered clouds at 2700 feet AGL
scattered clouds at 3500 feet AGL
Present Weather: automated observation with no human augmentation;
there may or may not be significant weather present at this time
KCGC 171455Z AUTO 00000KT 10SM SCT027 SCT035 30/23 A3015 RMK AO2

Conditions at: KCGC observed 17 June 2018  14:35 UTC
Temperature: 30.0°C (86°F)
Dewpoint: 23.0°C (73°F) [RH = 66%]
Pressure (altimeter): 30.15 inches Hg (1021.1 mb)
Winds: calm
Visibility: 10 or more miles (16+ km)
Ceiling: at least 12,000 feet AGL
Clouds: scattered clouds at 2300 feet AGL
Present Weather: automated observation with no human augmentation;
there may or may not be significant weather present at this time
KCGC 171435Z AUTO 00000KT 10SM SCT023 30/23 A3015 RMK AO2

Conditions at: KCGC observed 17 June 2018  14:15 UTC
Temperature: 29.0°C (84°F)
Dewpoint: 23.0°C (73°F) [RH = 70%]
Pressure (altimeter): 30.15 inches Hg (1021.1 mb)
Winds: calm
Visibility: 10 or more miles (16+ km)
Ceiling: at least 12,000 feet AGL
Clouds: sky clear below 12,000 feet AGL
Present Weather: automated observation with no human augmentation;
there may or may not be significant weather present at this time
KCGC 171415Z AUTO 00000KT 10SM CLR 29/23 A3015 RMK AO2

Conditions at: KCGC observed 17 June 2018  13:55 UTC
Temperature: 28.0°C (82°F)
Dewpoint: 23.0°C (73°F) [RH = 74%]
Pressure (altimeter): 30.16 inches Hg (1021.4 mb)
Winds: calm
Visibility: 10 or more miles (16+ km)
Ceiling: at least 12,000 feet AGL
Clouds: sky clear below 12,000 feet AGL
Present Weather: automated observation with no human augmentation;
there may or may not be significant weather present at this time
KCGC 171355Z AUTO 00000KT 10SM CLR 28/23 A3016 RMK AO2

Conditions at: KCGC observed 17 June 2018  13:35 UTC
Temperature: 27.0°C (81°F)
Dewpoint: 22.0°C (72°F) [RH = 74%]
Pressure (altimeter): 30.16 inches Hg (1021.4 mb)
Winds: calm
Visibility: 10 or more miles (16+ km)
Ceiling: at least 12,000 feet AGL
Clouds: sky clear below 12,000 feet AGL
Present Weather: automated observation with no human augmentation;
there may or may not be significant weather present at this time
KCGC 171335Z AUTO 00000KT 10SM CLR 27/22 A3016 RMK AO2

Conditions at: KCGC observed 17 June 2018  13:15 UTC
Temperature: 27.0°C (81°F)
Dewpoint: 23.0°C (73°F) [RH = 79%]
Pressure (altimeter): 30.16 inches Hg (1021.4 mb)
Winds: calm
Visibility: 10 or more miles (16+ km)
Ceiling: at least 12,000 feet AGL
Clouds: sky clear below 12,000 feet AGL
Present Weather: automated observation with no human augmentation;
there may or may not be significant weather present at this time
KCGC 171315Z AUTO 00000KT 10SM CLR 27/23 A3016 RMK AO2

Conditions at: KCGC observed 17 June 2018  12:55 UTC
Temperature: 26.0°C (79°F)
Dewpoint: 22.0°C (72°F) [RH = 79%]
Pressure (altimeter): 30.15 inches Hg (1021.1 mb)
Winds: calm
Visibility: 10 or more miles (16+ km)
Ceiling: at least 12,000 feet AGL
Clouds: sky clear below 12,000 feet AGL
Present Weather: automated observation with no human augmentation;
there may or may not be significant weather present at this time
KCGC 171255Z AUTO 00000KT 10SM CLR 26/22 A3015 RMK AO2

Conditions at: KCGC observed 17 June 2018  12:35 UTC
Temperature: 25.0°C (77°F)
Dewpoint: 22.0°C (72°F) [RH = 83%]
Pressure (altimeter): 30.13 inches Hg (1020.4 mb)
Winds: calm
Visibility: 10 or more miles (16+ km)
Ceiling: at least 12,000 feet AGL
Clouds: sky clear below 12,000 feet AGL
Present Weather: automated observation with no human augmentation;
there may or may not be significant weather present at this time
KCGC 171235Z AUTO 00000KT 10SM CLR 25/22 A3013 RMK AO2

Conditions at: KCGC observed 17 June 2018  12:15 UTC
Temperature: 24.0°C (75°F)
Dewpoint: 22.0°C (72°F) [RH = 89%]
Pressure (altimeter): 30.13 inches Hg (1020.4 mb)
Winds: calm
Visibility: 10 or more miles (16+ km)
Ceiling: at least 12,000 feet AGL
Clouds: sky clear below 12,000 feet AGL
Present Weather: automated observation with no human augmentation;
there may or may not be significant weather present at this time
KCGC 171215Z AUTO 00000KT 10SM CLR 24/22 A3013 RMK AO2 LTG DSNT N

Conditions at: KCGC observed 17 June 2018  11:55 UTC
Temperature: 23.0°C (73°F)
Dewpoint: 22.0°C (72°F) [RH = 94%]
Pressure (altimeter): 30.12 inches Hg (1020.1 mb)
Winds: calm
Visibility: 10 or more miles (16+ km)
Ceiling: at least 12,000 feet AGL
Clouds: sky clear below 12,000 feet AGL
Present Weather: automated observation with no human augmentation;
there may or may not be significant weather present at this time
KCGC 171155Z AUTO 00000KT 10SM CLR 23/22 A3012 RMK AO2

Conditions at: KCGC observed 17 June 2018  11:35 UTC
Temperature: 23.0°C (73°F)
Dewpoint: 22.0°C (72°F) [RH = 94%]
Pressure (altimeter): 30.12 inches Hg (1020.1 mb)
Winds: calm
Visibility: 10 or more miles (16+ km)
Ceiling: at least 12,000 feet AGL
Clouds: sky clear below 12,000 feet AGL
Present Weather: automated observation with no human augmentation;
there may or may not be significant weather present at this time
KCGC 171135Z AUTO 00000KT 10SM CLR 23/22 A3012 RMK AO2

Conditions at: KCGC observed 17 June 2018  11:15 UTC
Temperature: 23.0°C (73°F)
Dewpoint: 22.0°C (72°F) [RH = 94%]
Pressure (altimeter): 30.11 inches Hg (1019.7 mb)
Winds: calm
Visibility: 10 or more miles (16+ km)
Ceiling: at least 12,000 feet AGL
Clouds: sky clear below 12,000 feet AGL
Present Weather: automated observation with no human augmentation;
there may or may not be significant weather present at this time
KCGC 171115Z AUTO 00000KT 10SM CLR 23/22 A3011 RMK AO2

Conditions at: KCGC observed 17 June 2018  10:55 UTC
Temperature: 22.0°C (72°F)
Dewpoint: 22.0°C (72°F) [RH = 100%]
Pressure (altimeter): 30.11 inches Hg (1019.7 mb)
Winds: calm
Visibility: 10 or more miles (16+ km)
Ceiling: at least 12,000 feet AGL
Clouds: sky clear below 12,000 feet AGL
Present Weather: automated observation with no human augmentation;
there may or may not be significant weather present at this time
KCGC 171055Z AUTO 00000KT 10SM CLR 22/22 A3011 RMK AO2

Conditions at: KCGC observed 17 June 2018  10:35 UTC
Temperature: 22.0°C (72°F)
Dewpoint: 22.0°C (72°F) [RH = 100%]
Pressure (altimeter): 30.10 inches Hg (1019.4 mb)
Winds: calm
Visibility: 10 or more miles (16+ km)
Ceiling: at least 12,000 feet AGL
Clouds: sky clear below 12,000 feet AGL
Present Weather: automated observation with no human augmentation;
there may or may not be significant weather present at this time
KCGC 171035Z AUTO 00000KT 10SM CLR 22/22 A3010 RMK AO2

Conditions at: KCGC observed 17 June 2018  10:15 UTC
Temperature: 22.0°C (72°F)
Dewpoint: 21.0°C (70°F) [RH = 94%]
Pressure (altimeter): 30.09 inches Hg (1019.0 mb)
Winds: calm
Visibility: 10 or more miles (16+ km)
Ceiling: at least 12,000 feet AGL
Clouds: sky clear below 12,000 feet AGL
Present Weather: automated observation with no human augmentation;
there may or may not be significant weather present at this time
KCGC 171015Z AUTO 00000KT 10SM CLR 22/21 A3009 RMK AO2

Conditions at: KCGC observed 17 June 2018  09:55 UTC
Temperature: 22.0°C (72°F)
Dewpoint: 22.0°C (72°F) [RH = 100%]
Pressure (altimeter): 30.09 inches Hg (1019.0 mb)
Winds: calm
Visibility: 10 or more miles (16+ km)
Ceiling: at least 12,000 feet AGL
Clouds: sky clear below 12,000 feet AGL
Present Weather: automated observation with no human augmentation;
there may or may not be significant weather present at this time
KCGC 170955Z AUTO 00000KT 10SM CLR 22/22 A3009 RMK AO2

Conditions at: KCGC observed 17 June 2018  09:35 UTC
Temperature: 22.0°C (72°F)
Dewpoint: 21.0°C (70°F) [RH = 94%]
Pressure (altimeter): 30.08 inches Hg (1018.7 mb)
Winds: calm
Visibility: 10 or more miles (16+ km)
Ceiling: at least 12,000 feet AGL
Clouds: sky clear below 12,000 feet AGL
Present Weather: automated observation with no human augmentation;
there may or may not be significant weather present at this time
KCGC 170935Z AUTO 00000KT 10SM CLR 22/21 A3008 RMK AO2

Conditions at: KCGC observed 17 June 2018  09:15 UTC
Temperature: 22.0°C (72°F)
Dewpoint: 21.0°C (70°F) [RH = 94%]
Pressure (altimeter): 30.09 inches Hg (1019.0 mb)
Winds: calm
Visibility: 10 or more miles (16+ km)
Ceiling: at least 12,000 feet AGL
Clouds: sky clear below 12,000 feet AGL
Present Weather: automated observation with no human augmentation;
there may or may not be significant weather present at this time
KCGC 170915Z AUTO 00000KT 10SM CLR 22/21 A3009 RMK AO2

Conditions at: KCGC observed 17 June 2018  08:55 UTC
Temperature: 22.0°C (72°F)
Dewpoint: 21.0°C (70°F) [RH = 94%]
Pressure (altimeter): 30.09 inches Hg (1019.0 mb)
Winds: calm
Visibility: 10 or more miles (16+ km)
Ceiling: at least 12,000 feet AGL
Clouds: sky clear below 12,000 feet AGL
Present Weather: automated observation with no human augmentation;
there may or may not be significant weather present at this time
KCGC 170855Z AUTO 00000KT 10SM CLR 22/21 A3009 RMK AO2

Conditions at: KCGC observed 17 June 2018  08:35 UTC
Temperature: 22.0°C (72°F)
Dewpoint: 21.0°C (70°F) [RH = 94%]
Pressure (altimeter): 30.09 inches Hg (1019.0 mb)
Winds: calm
Visibility: 10 or more miles (16+ km)
Ceiling: at least 12,000 feet AGL
Clouds: sky clear below 12,000 feet AGL
Present Weather: automated observation with no human augmentation;
there may or may not be significant weather present at this time
KCGC 170835Z AUTO 00000KT 10SM CLR 22/21 A3009 RMK AO2

Conditions at: KCGC observed 17 June 2018  08:15 UTC
Temperature: 22.0°C (72°F)
Dewpoint: 21.0°C (70°F) [RH = 94%]
Pressure (altimeter): 30.08 inches Hg (1018.7 mb)
Winds: calm
Visibility: 10 or more miles (16+ km)
Ceiling: at least 12,000 feet AGL
Clouds: sky clear below 12,000 feet AGL
Present Weather: automated observation with no human augmentation;
there may or may not be significant weather present at this time
KCGC 170815Z AUTO 00000KT 10SM CLR 22/21 A3008 RMK AO2

Conditions at: KCGC observed 17 June 2018  07:55 UTC
Temperature: 22.0°C (72°F)
Dewpoint: 21.0°C (70°F) [RH = 94%]
Pressure (altimeter): 30.08 inches Hg (1018.7 mb)
Winds: calm
Visibility: 10 or more miles (16+ km)
Ceiling: at least 12,000 feet AGL
Clouds: sky clear below 12,000 feet AGL
Present Weather: automated observation with no human augmentation;
there may or may not be significant weather present at this time
KCGC 170755Z AUTO 00000KT 10SM CLR 22/21 A3008 RMK AO2

Conditions at: KCGC observed 17 June 2018  07:35 UTC
Temperature: 23.0°C (73°F)
Dewpoint: 22.0°C (72°F) [RH = 94%]
Pressure (altimeter): 30.09 inches Hg (1019.0 mb)
Winds: calm
Visibility: 10 or more miles (16+ km)
Ceiling: at least 12,000 feet AGL
Clouds: sky clear below 12,000 feet AGL
Present Weather: automated observation with no human augmentation;
there may or may not be significant weather present at this time
KCGC 170735Z AUTO 00000KT 10SM CLR 23/22 A3009 RMK AO2

Conditions at: KCGC observed 17 June 2018  07:15 UTC
Temperature: 23.0°C (73°F)
Dewpoint: 21.0°C (70°F) [RH = 89%]
Pressure (altimeter): 30.09 inches Hg (1019.0 mb)
Winds: calm
Visibility: 10 or more miles (16+ km)
Ceiling: at least 12,000 feet AGL
Clouds: sky clear below 12,000 feet AGL
Present Weather: automated observation with no human augmentation;
there may or may not be significant weather present at this time
KCGC 170715Z AUTO 00000KT 10SM CLR 23/21 A3009 RMK AO2